Time;durP1;ratioP1;P1;durP2;ratioP2;P2;SDS_P1;SDS_P2;PMS_P1;PMS_P2;Temp;Humidity;BMP_temperature;BMP_pressure;BME280_temperature;BME280_humidity;BME280_pressure;Samples;Min_cycle;Max_cycle;Signal;HPM_P1;HPM_P2
2021/12/04 00:00:08;;;;;;;1.90;1.80;;;6.70;99.90;;;;;;4995278;28;20511;-73
2021/12/04 00:02:37;;;;;;;3.40;1.80;;;6.60;99.90;;;;;;4995439;28;20472;-73
2021/12/04 00:05:05;;;;;;;1.60;1.50;;;6.60;99.90;;;;;;4995464;28;20456;-73
2021/12/04 00:07:34;;;;;;;1.50;1.40;;;6.60;99.90;;;;;;4995453;28;20444;-73
2021/12/04 00:10:03;;;;;;;2.30;2.10;;;6.60;99.90;;;;;;4995249;28;20567;-73
2021/12/04 00:12:32;;;;;;;2.33;2.13;;;6.60;99.90;;;;;;4995558;28;20555;-73
2021/12/04 00:14:59;;;;;;;1.83;1.57;;;6.50;99.90;;;;;;4995450;28;20451;-73
2021/12/04 00:17:27;;;;;;;2.73;2.00;;;6.60;99.90;;;;;;4995270;28;20503;-73
2021/12/04 00:19:55;;;;;;;2.07;1.90;;;6.50;99.90;;;;;;4995145;28;20484;-73
2021/12/04 00:22:22;;;;;;;3.30;1.90;;;6.50;99.90;;;;;;4995573;28;20451;-73
2021/12/04 00:24:49;;;;;;;1.80;1.67;;;6.60;99.90;;;;;;4995221;28;20448;-73
2021/12/04 00:27:15;;;;;;;1.60;1.50;;;6.60;99.90;;;;;;4995359;28;20452;-73
2021/12/04 00:29:42;;;;;;;1.53;1.43;;;6.60;99.90;;;;;;4994782;28;20539;-73
2021/12/04 00:32:13;;;;;;;4.30;1.93;;;6.60;99.90;;;;;;4995198;28;20495;-74
2021/12/04 00:34:43;;;;;;;2.30;2.10;;;6.60;99.90;;;;;;4995497;28;20429;-74
2021/12/04 00:37:32;;;;;;;2.03;1.73;;;6.60;99.90;;;;;;4997765;28;20448;-73
2021/12/04 00:51:10;;;;;;;1.73;1.63;;;6.70;99.90;;;;;;4997575;28;20443;-74
2021/12/04 00:53:38;;;;;;;1.60;1.50;;;6.60;99.90;;;;;;4994805;28;20432;-74
2021/12/04 00:56:06;;;;;;;1.50;1.40;;;6.60;99.90;;;;;;4994703;28;20445;-74
2021/12/04 00:58:33;;;;;;;1.80;1.70;;;6.60;99.90;;;;;;4994688;28;20444;-74
2021/12/04 01:01:00;;;;;;;1.60;1.50;;;6.70;99.90;;;;;;4994501;28;20492;-74
2021/12/04 01:03:26;;;;;;;2.53;1.70;;;6.60;99.90;;;;;;4994574;28;20543;-74
2021/12/04 01:05:53;;;;;;;1.53;1.27;;;6.60;99.90;;;;;;4994462;28;20440;-74
2021/12/04 01:08:20;;;;;;;1.47;1.37;;;6.70;99.90;;;;;;4994493;28;20452;-74
2021/12/04 01:10:48;;;;;;;2.07;1.20;;;6.70;99.90;;;;;;4994393;28;20485;-74
2021/12/04 01:13:15;;;;;;;1.30;1.20;;;6.70;99.90;;;;;;4995295;28;20532;-74
2021/12/04 01:15:43;;;;;;;2.17;1.80;;;6.70;99.90;;;;;;4994361;28;20444;-74
2021/12/04 01:18:10;;;;;;;6.23;1.40;;;6.70;99.90;;;;;;4994291;28;20568;-74
2021/12/04 01:20:38;;;;;;;1.60;1.33;;;6.70;99.90;;;;;;4994086;28;20865;-74
2021/12/04 01:23:05;;;;;;;1.40;1.30;;;6.70;99.90;;;;;;4994380;28;20463;-74
2021/12/04 01:25:34;;;;;;;2.33;1.60;;;6.70;99.90;;;;;;4994172;28;20444;-74
2021/12/04 01:28:03;;;;;;;1.57;1.47;;;6.70;99.90;;;;;;4994118;28;20441;-74
2021/12/04 01:30:30;;;;;;;1.87;1.40;;;6.70;99.90;;;;;;4993829;28;20464;-74
2021/12/04 01:32:57;;;;;;;2.30;1.60;;;6.70;99.90;;;;;;4994062;28;20450;-74
2021/12/04 01:35:24;;;;;;;2.73;1.43;;;6.70;99.90;;;;;;4993932;28;20457;-74
2021/12/04 01:37:51;;;;;;;2.30;1.70;;;6.70;99.90;;;;;;4994066;28;20454;-73
2021/12/04 01:40:18;;;;;;;1.17;1.07;;;6.70;99.90;;;;;;4993834;28;20492;-74
2021/12/04 01:42:45;;;;;;;2.20;1.43;;;6.70;99.90;;;;;;4994075;28;20452;-74
2021/12/04 01:45:13;;;;;;;2.03;1.60;;;6.60;99.90;;;;;;4993949;28;20820;-74
2021/12/04 01:47:40;;;;;;;1.40;1.30;;;6.60;99.90;;;;;;4993643;28;20961;-74
2021/12/04 01:50:08;;;;;;;1.40;1.30;;;6.60;99.90;;;;;;4993883;28;20864;-74
2021/12/04 01:52:35;;;;;;;1.83;1.20;;;6.60;99.90;;;;;;4993599;28;20463;-74
2021/12/04 01:55:02;;;;;;;0.90;0.90;;;6.60;99.90;;;;;;4993820;28;20551;-74
2021/12/04 01:57:29;;;;;;;1.20;1.10;;;6.60;99.90;;;;;;4993860;28;20829;-75
2021/12/04 01:59:56;;;;;;;1.77;0.90;;;6.60;99.90;;;;;;4995891;28;20844;-75
2021/12/04 02:02:24;;;;;;;2.43;1.87;;;6.60;99.90;;;;;;4997678;28;20511;-75
2021/12/04 02:04:51;;;;;;;2.63;1.80;;;6.60;99.90;;;;;;4997725;28;20520;-74
2021/12/04 02:07:20;;;;;;;2.87;1.47;;;6.70;99.90;;;;;;4997760;28;20954;-74
2021/12/04 02:09:47;;;;;;;1.80;1.40;;;6.60;99.90;;;;;;4997692;28;20452;-74
2021/12/04 02:12:13;;;;;;;2.63;1.70;;;6.70;99.90;;;;;;4999548;28;20460;-75
2021/12/04 02:14:42;;;;;;;2.30;1.60;;;6.70;99.90;;;;;;4998859;28;20934;-75
2021/12/04 02:17:10;;;;;;;2.03;1.40;;;6.70;99.90;;;;;;4999773;28;20491;-75
2021/12/04 02:19:39;;;;;;;2.63;1.70;;;6.70;99.90;;;;;;4999080;28;20442;-75
2021/12/04 02:22:08;;;;;;;3.60;1.60;;;6.70;99.90;;;;;;4997606;28;20562;-75
2021/12/04 02:24:34;;;;;;;1.97;1.67;;;6.70;99.90;;;;;;4998088;28;20470;-75
2021/12/04 02:27:01;;;;;;;1.57;1.37;;;6.70;99.90;;;;;;4996841;28;20922;-75
2021/12/04 02:29:28;;;;;;;2.23;1.53;;;6.70;99.90;;;;;;4996937;28;20457;-75
2021/12/04 02:31:57;;;;;;;2.00;1.43;;;6.80;99.90;;;;;;4996937;28;20469;-75
2021/12/04 02:34:26;;;;;;;2.33;1.90;;;6.80;99.90;;;;;;4996683;28;20954;-75
2021/12/04 02:36:53;;;;;;;2.27;1.40;;;6.80;99.90;;;;;;4998524;28;20455;-75
2021/12/04 02:39:30;;;;;;;2.10;1.57;;;6.80;99.90;;;;;;4998871;28;20464;-75
2021/12/04 02:41:59;;;;;;;2.80;1.40;;;6.80;99.90;;;;;;5001420;28;20479;-75
2021/12/04 02:44:34;;;;;;;1.90;1.13;;;6.80;99.90;;;;;;4997708;28;20452;-75
2021/12/04 02:47:01;;;;;;;1.50;1.40;;;6.80;99.90;;;;;;4997733;28;20785;-75
2021/12/04 02:49:28;;;;;;;2.03;1.20;;;6.80;99.90;;;;;;4997961;28;20471;-75
2021/12/04 02:51:54;;;;;;;0.90;0.90;;;6.80;99.90;;;;;;4997542;28;20477;-75
2021/12/04 02:54:21;;;;;;;1.30;1.10;;;6.80;99.90;;;;;;4996980;28;20946;-75
2021/12/04 02:56:51;;;;;;;2.30;1.90;;;6.80;99.90;;;;;;4997239;28;20954;-74
2021/12/04 02:59:18;;;;;;;5.33;1.93;;;6.80;99.90;;;;;;4996855;28;20467;-74
2021/12/04 03:01:45;;;;;;;5.27;1.87;;;6.80;99.90;;;;;;4996565;28;20523;-75
2021/12/04 03:04:13;;;;;;;1.43;1.27;;;6.80;99.90;;;;;;4996607;28;20524;-74
2021/12/04 03:06:43;;;;;;;0.90;0.80;;;6.80;99.90;;;;;;4996436;28;20459;-74
2021/12/04 03:09:10;;;;;;;1.23;1.13;;;6.70;99.90;;;;;;4996843;28;20456;-74
2021/12/04 03:11:38;;;;;;;1.97;1.10;;;6.70;99.90;;;;;;4996874;28;20471;-74
2021/12/04 03:14:07;;;;;;;1.13;1.03;;;6.70;99.90;;;;;;4998758;28;20452;-75
2021/12/04 03:16:36;;;;;;;1.30;1.00;;;6.70;99.90;;;;;;4996943;28;20464;-74
2021/12/04 03:19:03;;;;;;;1.20;1.07;;;6.70;99.90;;;;;;4999235;28;20458;-74
2021/12/04 03:21:30;;;;;;;3.57;1.47;;;6.70;99.90;;;;;;4996636;28;20488;-74
2021/12/04 03:24:00;;;;;;;1.40;1.30;;;6.70;99.90;;;;;;4996296;28;20456;-74
2021/12/04 03:26:27;;;;;;;1.03;1.00;;;6.70;99.90;;;;;;4996366;28;20535;-74
2021/12/04 03:28:56;;;;;;;1.40;1.30;;;6.70;99.90;;;;;;4996327;28;20527;-74
2021/12/04 03:31:39;;;;;;;1.83;1.50;;;6.70;99.90;;;;;;4995921;28;20989;-74
2021/12/04 03:42:20;;;;;;;2.07;1.93;;;6.70;99.90;;;;;;4996352;28;20456;-74
2021/12/04 03:44:47;;;;;;;2.50;1.87;;;6.70;99.90;;;;;;4995766;28;20448;-74
2021/12/04 03:47:15;;;;;;;1.90;1.73;;;6.70;99.90;;;;;;4996081;28;20444;-74
2021/12/04 03:49:42;;;;;;;2.57;2.37;;;6.70;99.90;;;;;;4995403;28;20459;-74
2021/12/04 03:52:09;;;;;;;3.63;2.10;;;6.70;99.90;;;;;;4995165;28;21021;-74
2021/12/04 03:54:37;;;;;;;3.00;2.03;;;6.80;99.90;;;;;;4995353;28;20487;-75
2021/12/04 03:57:06;;;;;;;2.00;1.83;;;6.80;99.90;;;;;;4995805;28;20448;-74
2021/12/04 03:59:34;;;;;;;3.70;2.30;;;6.80;99.90;;;;;;4995345;28;20816;-74
2021/12/04 04:02:01;;;;;;;3.73;2.20;;;6.80;99.90;;;;;;4994939;28;20483;-74
2021/12/04 04:04:29;;;;;;;3.53;2.50;;;6.80;99.90;;;;;;4995305;28;20522;-74
2021/12/04 04:06:58;;;;;;;2.10;1.90;;;6.80;99.90;;;;;;4995145;28;20981;-74
2021/12/04 04:09:25;;;;;;;2.43;1.93;;;6.80;99.90;;;;;;4995070;28;20543;-74
2021/12/04 04:11:52;;;;;;;2.90;2.23;;;6.80;99.90;;;;;;4995113;28;20480;-74
2021/12/04 04:14:19;;;;;;;2.73;2.50;;;6.80;99.90;;;;;;4995371;28;20456;-74
2021/12/04 04:16:45;;;;;;;3.10;2.90;;;6.90;99.90;;;;;;4995481;28;20463;-74
2021/12/04 04:19:13;;;;;;;3.60;3.07;;;6.90;99.90;;;;;;4995347;28;20547;-75
2021/12/04 04:21:42;;;;;;;3.67;3.27;;;6.80;99.90;;;;;;4994563;28;20572;-75
2021/12/04 04:24:10;;;;;;;3.40;3.07;;;6.90;99.90;;;;;;4995014;28;20479;-75
2021/12/04 04:26:38;;;;;;;5.57;3.80;;;6.80;99.90;;;;;;4995076;28;20561;-75
2021/12/04 04:29:05;;;;;;;5.67;3.93;;;6.90;99.90;;;;;;4995889;28;20791;-75
2021/12/04 04:31:33;;;;;;;4.80;3.60;;;6.80;99.90;;;;;;4994982;28;20472;-75
2021/12/04 04:34:03;;;;;;;3.57;3.27;;;6.90;99.90;;;;;;4995106;28;20453;-75
2021/12/04 04:39:34;;;;;;;4.80;4.30;;;6.80;99.90;;;;;;4994766;28;20433;-75
2021/12/04 04:58:56;;;;;;;6.73;4.83;;;6.80;99.90;;;;;;4995052;28;20408;-75
2021/12/04 05:01:53;;;;;;;5.07;4.40;;;6.80;99.90;;;;;;4994702;28;20574;-74
2021/12/04 05:12:47;;;;;;;4.63;4.23;;;6.80;99.90;;;;;;4994629;28;20488;-74
2021/12/04 05:15:18;;;;;;;4.20;3.80;;;6.80;99.90;;;;;;4995833;28;20458;-74
2021/12/04 05:17:55;;;;;;;4.90;4.50;;;6.80;99.90;;;;;;4995018;28;20437;-74
2021/12/04 05:20:27;;;;;;;4.23;3.70;;;6.80;99.90;;;;;;4994050;28;20527;-74
2021/12/04 05:22:53;;;;;;;3.77;3.47;;;6.80;99.90;;;;;;4994088;28;20510;-74
2021/12/04 05:25:20;;;;;;;4.50;4.20;;;6.80;99.90;;;;;;4993884;28;20456;-74
2021/12/04 05:27:48;;;;;;;3.83;3.43;;;6.80;99.90;;;;;;4993656;28;20436;-74
2021/12/04 05:30:15;;;;;;;3.50;3.10;;;6.80;99.90;;;;;;4994019;28;20475;-74
2021/12/04 05:32:42;;;;;;;6.50;3.80;;;6.80;99.90;;;;;;4994040;28;20452;-74
2021/12/04 05:35:09;;;;;;;4.33;3.30;;;6.80;99.90;;;;;;4994327;28;20452;-74
2021/12/04 05:37:36;;;;;;;3.93;3.63;;;6.80;99.90;;;;;;4994043;28;20457;-74
2021/12/04 05:40:03;;;;;;;3.87;3.07;;;6.80;99.90;;;;;;4993510;28;20459;-74
2021/12/04 05:42:31;;;;;;;3.40;3.10;;;6.80;99.90;;;;;;4993490;28;21024;-74
2021/12/04 05:45:00;;;;;;;2.93;2.73;;;6.80;99.90;;;;;;4994056;28;20455;-74
2021/12/04 05:47:31;;;;;;;3.80;3.43;;;6.90;99.90;;;;;;4993423;28;20452;-74
2021/12/04 05:50:09;;;;;;;3.93;3.27;;;6.80;99.90;;;;;;4993744;28;20441;-74
2021/12/04 05:52:50;;;;;;;3.27;3.07;;;6.80;99.90;;;;;;4994855;28;20914;-75
2021/12/04 05:55:18;;;;;;;3.40;3.10;;;6.80;99.90;;;;;;4993882;28;20436;-75
2021/12/04 05:57:46;;;;;;;3.67;3.37;;;6.80;99.90;;;;;;4993842;28;20459;-75
2021/12/04 06:00:17;;;;;;;3.83;3.53;;;6.80;99.90;;;;;;4994017;28;20468;-75
2021/12/04 06:02:44;;;;;;;3.83;3.43;;;6.80;99.90;;;;;;4993847;28;20867;-75
2021/12/04 06:05:12;;;;;;;4.10;3.80;;;6.80;99.90;;;;;;4993924;28;20441;-75
2021/12/04 06:07:39;;;;;;;5.00;2.90;;;6.80;99.90;;;;;;4993783;28;20444;-75
2021/12/04 06:10:07;;;;;;;4.67;3.87;;;6.80;99.90;;;;;;4993399;28;20479;-75
2021/12/04 06:12:34;;;;;;;4.10;3.80;;;6.80;99.90;;;;;;4993965;28;20444;-75
2021/12/04 06:15:01;;;;;;;5.30;4.17;;;6.90;99.90;;;;;;4994053;28;20460;-75
2021/12/04 06:17:30;;;;;;;4.43;4.00;;;6.80;99.90;;;;;;4993665;28;20459;-75
2021/12/04 06:22:42;;;;;;;4.10;3.77;;;6.90;99.90;;;;;;4993911;28;20463;-75
2021/12/04 06:25:11;;;;;;;4.53;3.70;;;6.90;99.90;;;;;;4993654;28;20444;-75
2021/12/04 06:27:38;;;;;;;4.17;3.77;;;6.90;99.90;;;;;;4993557;28;20965;-75
2021/12/04 06:30:06;;;;;;;4.27;3.87;;;6.80;99.90;;;;;;4993773;28;20446;-75
2021/12/04 06:32:35;;;;;;;4.47;4.00;;;6.80;99.90;;;;;;4993183;28;20451;-75
2021/12/04 06:35:02;;;;;;;5.77;4.47;;;6.80;99.90;;;;;;4994245;28;20455;-75
2021/12/04 06:37:29;;;;;;;5.10;4.33;;;6.80;99.90;;;;;;4993190;28;20829;-75
2021/12/04 06:39:56;;;;;;;4.13;3.83;;;6.80;99.90;;;;;;4993414;28;20451;-75
2021/12/04 06:42:23;;;;;;;4.13;3.83;;;6.80;99.90;;;;;;4993418;28;20476;-76
2021/12/04 06:44:53;;;;;;;4.67;3.93;;;6.80;99.90;;;;;;4994036;28;20452;-75
2021/12/04 06:47:19;;;;;;;4.37;3.97;;;6.80;99.90;;;;;;4997115;28;20547;-75
2021/12/04 06:49:49;;;;;;;5.53;4.40;;;6.80;99.90;;;;;;4996865;28;21009;-75
2021/12/04 06:52:19;;;;;;;4.50;4.07;;;6.80;99.90;;;;;;4997460;28;20452;-75
2021/12/04 06:54:53;;;;;;;4.80;4.30;;;6.80;99.90;;;;;;4997677;28;20454;-76
2021/12/04 06:57:20;;;;;;;4.57;4.17;;;6.80;99.90;;;;;;4996954;28;20427;-75
2021/12/04 06:59:48;;;;;;;5.13;4.53;;;6.80;99.90;;;;;;4996505;28;20456;-75
2021/12/04 07:02:15;;;;;;;5.03;4.50;;;6.80;99.90;;;;;;4996806;28;20519;-75
2021/12/04 07:04:42;;;;;;;4.13;3.83;;;6.80;99.90;;;;;;4996703;28;20820;-75
2021/12/04 07:07:11;;;;;;;4.60;4.20;;;6.80;99.90;;;;;;4996685;28;20812;-76
2021/12/04 07:09:38;;;;;;;4.60;4.20;;;6.80;99.90;;;;;;4996761;28;20455;-76
2021/12/04 07:12:06;;;;;;;4.53;4.00;;;6.80;99.90;;;;;;4996536;28;20464;-77
2021/12/04 07:14:34;;;;;;;6.00;5.00;;;6.80;99.90;;;;;;4996925;28;20444;-78
2021/12/04 07:17:03;;;;;;;5.70;4.77;;;6.70;99.90;;;;;;4996789;28;20932;-78
2021/12/04 07:19:30;;;;;;;4.77;4.37;;;6.80;99.90;;;;;;4997077;28;20432;-78
2021/12/04 07:21:57;;;;;;;6.20;4.63;;;6.80;99.90;;;;;;4997306;28;20487;-78
2021/12/04 07:24:26;;;;;;;5.47;4.97;;;6.80;99.90;;;;;;4997515;28;20456;-78
2021/12/04 07:26:53;;;;;;;5.33;4.80;;;6.80;99.90;;;;;;4996737;28;20939;-78
2021/12/04 07:29:20;;;;;;;4.40;4.10;;;6.80;99.90;;;;;;4996998;28;20452;-78
2021/12/04 07:31:46;;;;;;;5.00;4.50;;;6.80;99.90;;;;;;4997456;28;20476;-78
2021/12/04 07:34:14;;;;;;;5.80;4.90;;;6.80;99.90;;;;;;4997600;28;20455;-78
2021/12/04 07:36:40;;;;;;;6.50;5.03;;;6.80;99.90;;;;;;4997079;28;20436;-78
2021/12/04 07:39:07;;;;;;;6.70;6.07;;;6.80;99.90;;;;;;4997485;28;20847;-78
2021/12/04 07:41:38;;;;;;;6.23;5.50;;;6.80;99.90;;;;;;4998969;28;20476;-78
2021/12/04 07:44:08;;;;;;;5.77;5.23;;;6.80;99.90;;;;;;4998707;28;20869;-78
2021/12/04 07:46:34;;;;;;;5.53;5.13;;;6.80;99.90;;;;;;4998999;28;20472;-78
2021/12/04 07:49:01;;;;;;;6.00;5.40;;;6.80;99.90;;;;;;4996135;28;20943;-78
2021/12/04 07:51:28;;;;;;;5.90;5.40;;;6.80;99.90;;;;;;4996304;28;20468;-78
2021/12/04 07:53:55;;;;;;;5.93;5.43;;;6.90;99.90;;;;;;4996431;28;20456;-78
2021/12/04 07:56:21;;;;;;;7.10;6.40;;;6.80;99.90;;;;;;4995044;28;20452;-78
2021/12/04 07:58:50;;;;;;;6.37;5.70;;;6.90;99.90;;;;;;4996050;28;20439;-78
2021/12/04 08:01:17;;;;;;;7.40;5.73;;;6.90;99.90;;;;;;4995826;28;20476;-78
2021/12/04 08:03:43;;;;;;;7.13;6.43;;;6.90;99.90;;;;;;4995580;28;21009;-78
2021/12/04 08:06:10;;;;;;;9.53;7.33;;;7.00;99.90;;;;;;4995997;28;20459;-78
2021/12/04 08:08:37;;;;;;;7.00;6.20;;;7.00;99.90;;;;;;4995714;28;20432;-78
2021/12/04 08:11:04;;;;;;;6.70;6.00;;;7.00;99.90;;;;;;4995289;28;20564;-77
2021/12/04 08:13:31;;;;;;;6.50;5.80;;;7.00;99.90;;;;;;4995399;28;20455;-77
2021/12/04 08:15:59;;;;;;;5.60;5.10;;;7.00;99.90;;;;;;4995815;28;20433;-77
2021/12/04 08:18:26;;;;;;;6.47;5.90;;;7.00;99.90;;;;;;4995562;28;20440;-77
2021/12/04 08:20:53;;;;;;;7.60;5.80;;;7.00;99.90;;;;;;4995437;28;20470;-77
2021/12/04 08:23:20;;;;;;;6.33;5.53;;;7.10;99.90;;;;;;4995051;28;20483;-77
2021/12/04 08:25:47;;;;;;;6.60;5.83;;;7.10;99.90;;;;;;4995524;28;20445;-78
2021/12/04 08:28:14;;;;;;;7.40;5.50;;;7.20;99.90;;;;;;4995680;28;20459;-78
2021/12/04 08:30:42;;;;;;;11.23;6.40;;;7.20;99.90;;;;;;4995276;28;20468;-78
2021/12/04 08:33:11;;;;;;;3.97;3.63;;;7.20;99.90;;;;;;4995317;28;20448;-79
2021/12/04 08:35:40;;;;;;;8.00;5.78;;;7.20;99.90;;;;;;4994651;28;20994;-78
2021/12/04 08:38:07;;;;;;;6.40;5.80;;;7.30;99.90;;;;;;4995478;28;20205;-78
2021/12/04 08:40:35;;;;;;;6.17;5.53;;;7.40;99.90;;;;;;4995084;28;20473;-78
2021/12/04 08:43:01;;;;;;;5.40;4.90;;;7.40;99.90;;;;;;4995340;28;20974;-78
2021/12/04 08:45:29;;;;;;;5.93;5.43;;;7.50;99.90;;;;;;4994927;28;20478;-77
2021/12/04 08:47:56;;;;;;;6.17;5.47;;;7.50;99.90;;;;;;4994957;28;20498;-77
2021/12/04 08:50:26;;;;;;;5.80;5.20;;;7.50;99.90;;;;;;4994946;28;20475;-77
2021/12/04 08:52:54;;;;;;;5.17;4.67;;;7.60;99.90;;;;;;4995298;28;20432;-76
2021/12/04 08:55:22;;;;;;;5.93;5.30;;;7.60;99.90;;;;;;4994607;28;20546;-78
2021/12/04 08:57:49;;;;;;;5.50;5.00;;;7.60;99.90;;;;;;4995590;28;20452;-76
2021/12/04 09:00:20;;;;;;;8.00;6.10;;;7.70;99.90;;;;;;4994244;28;21009;-75
2021/12/04 09:02:47;;;;;;;8.20;6.33;;;7.70;99.90;;;;;;4994453;28;20479;-75
2021/12/04 09:05:16;;;;;;;8.77;5.53;;;7.70;99.90;;;;;;4994502;28;20452;-76
2021/12/04 09:07:45;;;;;;;6.80;5.60;;;7.70;99.90;;;;;;4994074;28;20445;-76
2021/12/04 09:10:13;;;;;;;5.70;5.20;;;7.70;99.90;;;;;;4993911;28;20495;-76
2021/12/04 09:12:41;;;;;;;6.37;5.10;;;7.80;99.90;;;;;;4994293;28;20444;-77
2021/12/04 09:15:12;;;;;;;8.30;5.40;;;7.80;99.90;;;;;;4994182;28;20448;-77
2021/12/04 09:17:39;;;;;;;7.13;5.93;;;7.80;99.90;;;;;;4994214;28;20456;-77
2021/12/04 09:23:33;;;;;;;5.10;4.60;;;7.90;99.90;;;;;;5001534;23;20495;-77
2021/12/04 09:26:03;;;;;;;9.40;5.60;;;8.00;99.90;;;;;;4993704;28;20468;-77
2021/12/04 09:28:41;;;;;;;5.68;4.63;;;8.10;99.90;;;;;;4994819;28;20433;-75
2021/12/04 09:37:00;;;;;;;5.80;5.10;;;8.30;99.90;;;;;;4994261;28;20420;-77
2021/12/04 10:04:43;;;;;;;5.33;4.83;;;8.90;98.20;;;;;;4991578;28;20564;-74
2021/12/04 10:18:31;;;;;;;5.60;4.37;;;9.40;97.20;;;;;;4989954;28;20797;-75
2021/12/04 10:21:09;;;;;;;4.43;4.03;;;9.60;96.70;;;;;;4996154;28;20474;-75
2021/12/04 10:24:02;;;;;;;4.97;4.50;;;9.80;96.00;;;;;;4997678;28;20472;-75
2021/12/04 10:32:27;;;;;;;5.30;4.10;;;9.70;94.40;;;;;;4996990;28;20439;-75
2021/12/04 10:34:57;;;;;;;4.67;4.27;;;9.70;94.60;;;;;;4997288;28;20464;-74
2021/12/04 10:37:27;;;;;;;4.77;4.27;;;9.60;94.70;;;;;;4997573;28;20432;-74
2021/12/04 10:39:55;;;;;;;4.07;3.60;;;9.70;94.90;;;;;;4996921;28;20471;-75
2021/12/04 10:42:25;;;;;;;4.60;4.20;;;9.70;95.10;;;;;;4996790;28;20450;-74
2021/12/04 10:44:55;;;;;;;4.90;4.07;;;9.80;95.40;;;;;;4996934;28;20437;-75
2021/12/04 10:47:25;;;;;;;4.77;4.37;;;9.80;95.20;;;;;;4996982;28;20428;-75
2021/12/04 10:50:04;;;;;;;5.67;4.87;;;9.80;95.20;;;;;;4996852;28;20436;-75
2021/12/04 10:52:45;;;;;;;14.27;5.43;;;9.80;95.00;;;;;;4996992;28;20518;-74
2021/12/04 10:55:18;;;;;;;5.17;4.67;;;9.70;94.40;;;;;;4996954;28;20440;-73
2021/12/04 11:00:46;;;;;;;5.27;4.70;;;9.50;94.70;;;;;;4997060;28;20449;-74
2021/12/04 11:03:28;;;;;;;6.57;5.10;;;9.50;95.00;;;;;;4996601;28;20478;-74
2021/12/04 11:26:08;;;;;;;4.60;4.20;;;9.20;94.90;;;;;;4954925;28;20520;-71
2021/12/04 11:37:20;;;;;;;4.80;4.30;;;9.20;94.70;;;;;;4996440;28;20412;-71
2021/12/04 11:40:21;;;;;;;4.43;4.03;;;9.20;94.80;;;;;;4995638;28;20487;-71
2021/12/04 11:42:53;;;;;;;5.20;4.67;;;9.20;94.90;;;;;;4995963;28;20547;-71
2021/12/04 11:45:25;;;;;;;3.70;3.33;;;9.20;95.00;;;;;;4995784;28;20444;-71
2021/12/04 11:47:54;;;;;;;3.40;3.10;;;9.20;95.10;;;;;;4995485;28;20917;-71
2021/12/04 11:50:25;;;;;;;4.23;3.83;;;9.20;95.30;;;;;;4995289;28;20468;-71
2021/12/04 11:52:56;;;;;;;3.40;3.10;;;9.30;95.40;;;;;;4995872;28;20527;-72
2021/12/04 11:55:27;;;;;;;3.23;2.87;;;9.40;95.30;;;;;;4996001;28;20437;-71
2021/12/04 11:57:54;;;;;;;3.37;3.17;;;9.50;95.40;;;;;;4995767;28;20433;-69
2021/12/04 12:00:25;;;;;;;8.00;5.73;;;9.60;95.40;;;;;;4995425;28;20579;-69
2021/12/04 12:03:07;;;;;;;4.80;4.30;;;9.70;95.40;;;;;;4995471;28;20436;-69
2021/12/04 12:05:42;;;;;;;6.00;3.70;;;9.80;95.30;;;;;;4996026;28;20437;-69
2021/12/04 12:08:22;;;;;;;3.70;3.30;;;9.90;95.00;;;;;;4995310;28;20464;-69
2021/12/04 12:10:50;;;;;;;3.73;3.43;;;9.90;93.50;;;;;;4995218;28;20482;-69
2021/12/04 12:13:25;;;;;;;3.43;3.10;;;9.80;93.60;;;;;;4994956;28;20448;-69
2021/12/04 12:16:00;;;;;;;4.63;3.40;;;9.70;92.30;;;;;;4995032;28;20797;-69
2021/12/04 12:18:28;;;;;;;5.10;3.20;;;9.70;92.50;;;;;;4994866;28;20981;-69
2021/12/04 12:21:07;;;;;;;3.30;3.00;;;9.60;92.70;;;;;;4995044;28;20479;-69
2021/12/04 12:23:34;;;;;;;3.83;3.50;;;9.50;93.00;;;;;;4995027;28;20472;-69
2021/12/04 12:26:12;;;;;;;4.00;3.60;;;9.40;93.70;;;;;;4995439;28;20802;-69
2021/12/04 12:37:20;;;;;;;6.20;5.60;;;9.20;94.20;;;;;;4994959;28;20825;-69
2021/12/04 12:39:56;;;;;;;4.70;4.30;;;9.20;94.20;;;;;;4994764;28;20520;-69
2021/12/04 12:42:25;;;;;;;4.80;4.40;;;9.00;94.10;;;;;;4993989;28;20455;-69
2021/12/04 12:44:51;;;;;;;4.47;4.07;;;8.90;94.30;;;;;;4994680;28;20511;-69
2021/12/04 12:47:21;;;;;;;5.37;4.87;;;8.80;94.70;;;;;;4994793;28;20433;-69
2021/12/04 12:49:48;;;;;;;5.87;3.90;;;8.80;95.10;;;;;;4994670;28;20452;-69
2021/12/04 12:52:20;;;;;;;5.40;5.00;;;8.70;95.50;;;;;;4995278;28;20807;-69
2021/12/04 12:54:54;;;;;;;5.73;5.23;;;8.60;95.80;;;;;;4994434;28;20428;-70
2021/12/04 12:57:25;;;;;;;5.73;4.90;;;8.50;96.00;;;;;;4994747;28;20437;-70
2021/12/04 13:13:53;;;;;;;5.10;4.60;;;8.40;97.50;;;;;;4994076;28;20404;-70
2021/12/04 13:16:23;;;;;;;5.80;5.20;;;8.40;97.60;;;;;;4994024;28;20451;-70
2021/12/04 13:18:56;;;;;;;6.60;4.93;;;8.50;97.80;;;;;;4993700;28;21017;-70
2021/12/04 13:21:24;;;;;;;6.67;5.23;;;8.50;97.80;;;;;;4993977;28;20503;-70
2021/12/04 13:23:55;;;;;;;5.97;5.00;;;8.50;97.90;;;;;;4994225;28;20833;-69
2021/12/04 13:26:27;;;;;;;6.10;4.80;;;8.50;97.90;;;;;;4993981;28;20428;-69
2021/12/04 13:28:54;;;;;;;5.50;5.00;;;8.40;98.00;;;;;;4993898;28;20440;-69
2021/12/04 13:31:21;;;;;;;6.40;4.83;;;8.50;98.20;;;;;;4993718;28;20499;-71
2021/12/04 13:33:51;;;;;;;9.70;6.83;;;8.50;98.20;;;;;;4993951;28;20425;-72
2021/12/04 13:36:21;;;;;;;8.73;6.27;;;8.50;98.30;;;;;;4994070;28;20436;-72
2021/12/04 13:38:51;;;;;;;10.83;6.57;;;8.50;98.50;;;;;;4993945;28;20448;-72
2021/12/04 13:41:20;;;;;;;8.93;7.20;;;8.60;98.50;;;;;;4993425;28;20847;-72
2021/12/04 13:43:52;;;;;;;17.70;12.40;;;8.60;98.40;;;;;;4993841;28;20488;-70
2021/12/04 13:46:19;;;;;;;13.25;10.05;;;8.70;98.40;;;;;;4993529;28;20476;-70
2021/12/04 13:48:45;;;;;;;10.40;8.15;;;8.70;98.40;;;;;;4993461;28;20441;-70
2021/12/04 13:51:13;;;;;;;7.90;7.10;;;8.70;98.20;;;;;;4993312;28;20624;-70
2021/12/04 13:53:43;;;;;;;8.65;7.80;;;8.60;98.10;;;;;;4992798;28;20455;-69
2021/12/04 13:56:13;;;;;;;22.07;8.37;;;8.70;98.20;;;;;;4996974;28;20660;-69
2021/12/04 13:58:46;;;;;;;14.53;7.07;;;8.70;98.30;;;;;;4997484;28;20817;-71
2021/12/04 14:01:13;;;;;;;17.90;7.28;;;8.60;98.40;;;;;;4996672;28;20425;-69
2021/12/04 14:03:40;;;;;;;9.00;6.83;;;8.70;98.60;;;;;;4997578;28;20229;-71
2021/12/04 14:06:11;;;;;;;62.43;10.07;;;8.60;98.60;;;;;;4997635;28;20451;-71
2021/12/04 14:08:38;;;;;;;15.47;6.90;;;8.60;99.00;;;;;;4997358;28;20475;-71
2021/12/04 14:11:05;;;;;;;45.08;9.40;;;8.60;99.30;;;;;;4996210;28;20787;-70
2021/12/04 14:13:32;;;;;;;20.33;10.20;;;8.60;99.40;;;;;;4997601;28;20197;-70
2021/12/04 14:16:00;;;;;;;16.40;6.80;;;8.60;99.50;;;;;;4997455;28;20779;-71
2021/12/04 14:18:29;;;;;;;7.53;5.70;;;8.60;99.20;;;;;;4997383;28;20456;-71
2021/12/04 14:21:00;;;;;;;7.80;7.00;;;8.60;99.20;;;;;;4997453;28;20833;-72
2021/12/04 14:23:28;;;;;;;7.50;6.70;;;8.50;99.00;;;;;;4997285;28;20854;-72
2021/12/04 14:25:55;;;;;;;7.83;6.30;;;8.40;99.10;;;;;;4997507;28;20471;-72
2021/12/04 14:28:24;;;;;;;7.60;5.93;;;8.30;99.40;;;;;;4997443;28;20475;-72
2021/12/04 14:30:52;;;;;;;6.53;5.77;;;8.20;99.70;;;;;;4997510;28;20542;-72
2021/12/04 14:33:23;;;;;;;8.20;5.40;;;8.10;99.90;;;;;;4997251;28;20475;-72
2021/12/04 14:35:52;;;;;;;6.00;5.07;;;8.00;99.90;;;;;;4997100;28;20475;-72
2021/12/04 14:38:21;;;;;;;5.37;4.23;;;7.90;99.90;;;;;;4996692;28;20455;-72
2021/12/04 14:40:51;;;;;;;4.90;4.43;;;7.90;99.90;;;;;;4997124;28;20468;-72
2021/12/04 14:43:20;;;;;;;5.13;4.43;;;7.90;99.90;;;;;;4996879;28;20862;-72
2021/12/04 14:45:51;;;;;;;4.67;4.10;;;7.80;99.90;;;;;;4998035;28;20483;-72
2021/12/04 14:48:22;;;;;;;5.83;4.50;;;7.80;99.90;;;;;;4997059;28;20432;-72
2021/12/04 14:50:51;;;;;;;6.27;4.50;;;7.80;99.90;;;;;;4996956;28;20475;-72
2021/12/04 14:53:21;;;;;;;5.63;4.80;;;7.80;99.90;;;;;;4997392;28;20432;-72
2021/12/04 14:55:51;;;;;;;5.77;4.27;;;7.80;99.90;;;;;;4996870;28;20440;-72
2021/12/04 14:58:20;;;;;;;4.93;4.40;;;7.80;99.90;;;;;;4996860;28;20444;-71
2021/12/04 15:00:50;;;;;;;9.13;4.27;;;7.80;99.90;;;;;;4996657;28;20453;-71
2021/12/04 15:03:20;;;;;;;6.43;4.03;;;7.70;99.90;;;;;;4996642;28;20433;-71
2021/12/04 15:05:50;;;;;;;4.27;3.57;;;7.70;99.90;;;;;;4995804;28;20842;-70
2021/12/04 15:08:21;;;;;;;5.60;4.00;;;7.60;99.90;;;;;;4996596;28;20461;-72
2021/12/04 15:10:49;;;;;;;5.00;4.10;;;7.60;99.90;;;;;;4996601;28;20476;-72
2021/12/04 15:13:20;;;;;;;5.10;4.40;;;7.50;99.90;;;;;;4996441;28;20458;-72
2021/12/04 15:15:47;;;;;;;4.30;3.80;;;7.50;99.90;;;;;;4996333;28;20448;-72
2021/12/04 15:18:15;;;;;;;4.80;4.27;;;7.50;99.90;;;;;;4996330;28;20454;-72
2021/12/04 15:20:53;;;;;;;5.53;4.27;;;7.30;99.90;;;;;;4996086;28;20471;-72
2021/12/04 15:23:25;;;;;;;6.00;4.43;;;7.10;99.90;;;;;;4996509;28;20436;-72
2021/12/04 15:25:55;;;;;;;5.17;4.57;;;7.10;99.90;;;;;;4995733;28;20488;-72
2021/12/04 15:28:25;;;;;;;6.80;5.10;;;7.10;99.90;;;;;;4996052;28;20487;-72
2021/12/04 15:30:55;;;;;;;9.37;4.90;;;7.00;99.90;;;;;;4996338;28;20484;-71
2021/12/04 15:33:24;;;;;;;5.20;4.70;;;7.00;99.90;;;;;;4995938;28;20440;-72
2021/12/04 15:35:51;;;;;;;6.20;4.80;;;7.00;99.90;;;;;;4996040;28;20420;-72
2021/12/04 15:38:25;;;;;;;8.90;5.50;;;7.00;99.90;;;;;;4996275;28;20467;-72
2021/12/04 15:41:02;;;;;;;6.67;5.00;;;6.90;99.90;;;;;;4995924;28;20483;-72